Time;durP1;ratioP1;P1;durP2;ratioP2;P2;SDS_P1;SDS_P2;PMS_P1;PMS_P2;Temp;Humidity;BMP_temperature;BMP_pressure;BME280_temperature;BME280_humidity;BME280_pressure;Samples;Min_cycle;Max_cycle;Signal;HPM_P1;HPM_P2
2023/03/10 00:00:23;;;;;;;;;;;19.60;41.60;;;;;;5070562;28;20297;-63
2023/03/10 00:02:49;;;;;;;;;;;19.50;41.50;;;;;;5053655;28;19970;-62
2023/03/10 00:05:16;;;;;;;;;;;19.60;41.50;;;;;;5055349;28;20216;-63
2023/03/10 00:07:43;;;;;;;;;;;19.50;41.50;;;;;;5055929;28;19924;-63
2023/03/10 00:10:10;;;;;;;;;;;19.60;41.50;;;;;;5053226;28;19920;-62
2023/03/10 00:12:37;;;;;;;;;;;19.60;41.60;;;;;;5053951;28;20278;-63
2023/03/10 00:15:04;;;;;;;;;;;19.60;41.60;;;;;;5073480;28;19921;-63
2023/03/10 00:17:33;;;;;;;;;;;19.50;41.50;;;;;;5055227;28;19925;-63
2023/03/10 00:19:59;;;;;;;;;;;19.50;41.50;;;;;;5058490;28;19921;-63
2023/03/10 00:22:26;;;;;;;;;;;19.60;41.60;;;;;;5074538;28;20030;-63
2023/03/10 00:24:53;;;;;;;;;;;19.60;41.60;;;;;;5058659;28;19924;-63
2023/03/10 00:27:20;;;;;;;;;;;19.50;41.50;;;;;;5059536;28;19970;-63
2023/03/10 00:29:46;;;;;;;;;;;19.60;41.60;;;;;;5074884;28;19927;-64
2023/03/10 00:32:13;;;;;;;;;;;19.60;41.60;;;;;;5057771;28;20362;-63
2023/03/10 00:34:41;;;;;;;;;;;19.50;41.50;;;;;;5059270;28;19920;-63
2023/03/10 00:37:08;;;;;;;;;;;19.60;41.60;;;;;;5054739;28;19925;-64
2023/03/10 00:39:35;;;;;;;;;;;19.50;41.50;;;;;;5056038;28;19920;-63
2023/03/10 00:42:02;;;;;;;;;;;19.50;41.50;;;;;;5075714;28;19927;-64
2023/03/10 00:44:29;;;;;;;;;;;19.50;41.50;;;;;;5056397;28;19920;-63
2023/03/10 00:46:56;;;;;;;;;;;19.60;41.60;;;;;;5059330;28;19960;-63
2023/03/10 00:49:22;;;;;;;;;;;19.60;41.60;;;;;;5058974;28;19920;-63
2023/03/10 00:51:51;;;;;;;;;;;19.50;41.50;;;;;;5058017;28;20299;-63
2023/03/10 00:54:17;;;;;;;;;;;19.50;41.40;;;;;;5058432;28;19921;-64
2023/03/10 00:56:44;;;;;;;;;;;19.50;41.50;;;;;;5055968;28;19927;-63
2023/03/10 00:59:11;;;;;;;;;;;19.50;41.40;;;;;;5056579;28;19936;-63
2023/03/10 01:01:38;;;;;;;;;;;19.60;41.50;;;;;;5056687;28;19960;-63
2023/03/10 01:04:05;;;;;;;;;;;19.50;41.50;;;;;;5055929;28;20009;-63
2023/03/10 01:06:32;;;;;;;;;;;19.50;41.50;;;;;;5075648;28;19927;-63
2023/03/10 01:09:00;;;;;;;;;;;19.50;41.50;;;;;;5056583;28;19924;-63
2023/03/10 01:11:27;;;;;;;;;;;19.50;41.50;;;;;;5058155;28;19954;-63
2023/03/10 01:13:55;;;;;;;;;;;19.50;41.50;;;;;;5058233;28;19962;-63
2023/03/10 01:16:22;;;;;;;;;;;19.50;41.50;;;;;;5058195;28;19981;-63
2023/03/10 01:18:49;;;;;;;;;;;19.50;41.50;;;;;;5057685;28;19931;-63
2023/03/10 01:21:17;;;;;;;;;;;19.50;41.50;;;;;;5058601;28;19920;-63
2023/03/10 01:23:44;;;;;;;;;;;19.50;41.50;;;;;;5058622;28;19977;-63
2023/03/10 01:26:12;;;;;;;;;;;19.50;41.50;;;;;;5058603;28;19960;-63
2023/03/10 01:28:39;;;;;;;;;;;19.50;41.60;;;;;;5056084;28;19966;-63
2023/03/10 01:31:06;;;;;;;;;;;19.50;41.50;;;;;;5074387;28;19992;-63
2023/03/10 01:33:33;;;;;;;;;;;19.50;41.50;;;;;;5057909;28;19920;-63
2023/03/10 01:36:00;;;;;;;;;;;19.50;41.50;;;;;;5058141;28;19921;-63
2023/03/10 01:38:27;;;;;;;;;;;19.50;41.60;;;;;;5054996;28;19944;-63
2023/03/10 01:40:53;;;;;;;;;;;19.50;41.60;;;;;;5057579;28;19920;-63
2023/03/10 01:43:29;;;;;;;;;;;19.50;41.60;;;;;;5072994;28;19920;-63
2023/03/10 01:46:23;;;;;;;;;;;19.50;41.50;;;;;;5071657;28;19951;-63
2023/03/10 01:48:49;;;;;;;;;;;19.50;41.60;;;;;;5037170;28;19928;-63
2023/03/10 01:51:16;;;;;;;;;;;19.50;41.60;;;;;;5075439;28;19973;-63
2023/03/10 01:53:43;;;;;;;;;;;19.50;41.50;;;;;;5055133;28;19924;-63
2023/03/10 01:56:11;;;;;;;;;;;19.50;41.60;;;;;;5053524;28;19920;-63
2023/03/10 01:58:40;;;;;;;;;;;19.50;41.50;;;;;;5053906;28;19924;-63
2023/03/10 02:01:06;;;;;;;;;;;19.50;41.60;;;;;;5054858;28;19928;-63
2023/03/10 02:03:34;;;;;;;;;;;19.50;41.60;;;;;;5054205;28;19920;-63
2023/03/10 02:06:01;;;;;;;;;;;19.50;41.60;;;;;;5054110;28;19982;-62
2023/03/10 02:08:29;;;;;;;;;;;19.50;41.60;;;;;;5054286;28;19942;-62
2023/03/10 02:10:56;;;;;;;;;;;19.50;42.20;;;;;;5073012;28;19966;-63
2023/03/10 02:13:22;;;;;;;;;;;19.50;41.60;;;;;;5055608;28;19920;-63
2023/03/10 02:15:51;;;;;;;;;;;19.50;41.60;;;;;;5076429;28;19924;-64
2023/03/10 02:18:17;;;;;;;;;;;19.50;41.60;;;;;;5054611;28;19966;-63
2023/03/10 02:20:45;;;;;;;;;;;19.50;41.60;;;;;;5069923;28;19927;-64
2023/03/10 02:23:13;;;;;;;;;;;19.50;41.60;;;;;;5052844;28;19974;-63
2023/03/10 02:25:41;;;;;;;;;;;19.50;41.60;;;;;;5054582;28;19966;-64
2023/03/10 02:28:09;;;;;;;;;;;19.50;41.60;;;;;;5053437;28;20251;-61
2023/03/10 02:30:37;;;;;;;;;;;19.50;41.60;;;;;;5053871;28;19921;-64
2023/03/10 02:33:04;;;;;;;;;;;19.50;41.70;;;;;;5072274;28;20366;-62
2023/03/10 02:35:31;;;;;;;;;;;19.50;41.60;;;;;;5071292;28;19925;-63
2023/03/10 02:37:58;;;;;;;;;;;19.50;41.60;;;;;;5053210;28;19920;-62
2023/03/10 02:40:28;;;;;;;;;;;19.50;41.60;;;;;;5072512;28;19920;-63
2023/03/10 02:42:55;;;;;;;;;;;19.50;41.60;;;;;;5054487;28;19920;-63
2023/03/10 02:45:23;;;;;;;;;;;19.50;41.60;;;;;;5056394;28;19927;-63
2023/03/10 02:47:50;;;;;;;;;;;19.50;41.70;;;;;;5073941;28;19967;-64
2023/03/10 02:50:16;;;;;;;;;;;19.50;41.70;;;;;;5074227;28;19928;-64
2023/03/10 02:52:44;;;;;;;;;;;19.50;41.70;;;;;;5056656;28;19956;-63
2023/03/10 02:55:14;;;;;;;;;;;19.50;41.70;;;;;;5056179;28;19920;-63
2023/03/10 02:57:40;;;;;;;;;;;19.50;41.60;;;;;;5074172;28;19925;-63
2023/03/10 03:00:10;;;;;;;;;;;19.50;41.70;;;;;;5073961;28;19920;-63
2023/03/10 03:02:38;;;;;;;;;;;19.50;41.70;;;;;;5054063;28;20014;-62
2023/03/10 03:05:05;;;;;;;;;;;19.50;41.70;;;;;;5073934;28;20285;-63
2023/03/10 03:07:32;;;;;;;;;;;19.50;41.70;;;;;;5056002;28;19921;-63
2023/03/10 03:09:59;;;;;;;;;;;19.50;41.70;;;;;;5054422;28;19970;-64
2023/03/10 03:12:25;;;;;;;;;;;19.50;41.70;;;;;;5073551;28;19921;-63
2023/03/10 03:14:52;;;;;;;;;;;19.50;41.70;;;;;;5073890;28;19920;-63
2023/03/10 03:17:19;;;;;;;;;;;19.50;41.70;;;;;;5052188;28;20278;-63
2023/03/10 03:19:47;;;;;;;;;;;19.50;41.70;;;;;;5035546;28;19928;-64
2023/03/10 03:22:14;;;;;;;;;;;19.50;41.70;;;;;;5053014;28;20260;-64
2023/03/10 03:24:41;;;;;;;;;;;19.50;41.80;;;;;;5053679;28;19960;-63
2023/03/10 03:27:08;;;;;;;;;;;19.50;41.70;;;;;;5052466;28;19921;-64
2023/03/10 03:29:34;;;;;;;;;;;19.50;41.70;;;;;;5052291;28;19944;-64
2023/03/10 03:32:01;;;;;;;;;;;19.50;41.70;;;;;;5036420;28;19960;-64
2023/03/10 03:34:28;;;;;;;;;;;19.50;41.80;;;;;;5053202;28;20396;-63
2023/03/10 03:36:56;;;;;;;;;;;19.50;41.70;;;;;;5053526;28;19921;-64
2023/03/10 03:39:23;;;;;;;;;;;19.50;41.80;;;;;;5036374;28;19999;-63
2023/03/10 03:41:52;;;;;;;;;;;19.50;41.80;;;;;;5036409;28;19921;-63
2023/03/10 03:44:18;;;;;;;;;;;19.50;41.80;;;;;;5052719;28;19998;-64
2023/03/10 03:46:45;;;;;;;;;;;19.50;41.80;;;;;;5065726;28;19951;-63
2023/03/10 03:49:12;;;;;;;;;;;19.50;41.80;;;;;;5073196;28;19921;-63
2023/03/10 03:51:38;;;;;;;;;;;19.50;41.80;;;;;;5055512;28;19967;-64
2023/03/10 03:54:07;;;;;;;;;;;19.50;42.40;;;;;;5073032;28;19966;-64
2023/03/10 03:56:33;;;;;;;;;;;19.50;41.80;;;;;;5059165;28;20359;-64
2023/03/10 03:59:00;;;;;;;;;;;19.50;41.80;;;;;;5057954;28;19947;-64
2023/03/10 04:01:27;;;;;;;;;;;19.50;41.80;;;;;;5075248;28;19920;-64
2023/03/10 04:03:54;;;;;;;;;;;19.50;41.80;;;;;;5074376;28;20015;-64
2023/03/10 04:06:20;;;;;;;;;;;19.50;41.80;;;;;;5058187;28;19931;-64
2023/03/10 04:08:48;;;;;;;;;;;19.50;41.80;;;;;;5059906;28;19920;-63
2023/03/10 04:11:16;;;;;;;;;;;19.50;41.80;;;;;;5075232;28;19966;-64
2023/03/10 04:13:43;;;;;;;;;;;19.50;41.80;;;;;;5057953;28;19921;-63
2023/03/10 04:16:10;;;;;;;;;;;19.50;41.80;;;;;;5057088;28;19920;-63
2023/03/10 04:18:37;;;;;;;;;;;19.50;41.80;;;;;;5055177;28;19927;-64
2023/03/10 04:21:03;;;;;;;;;;;19.50;41.80;;;;;;5056987;28;19920;-63
2023/03/10 04:23:30;;;;;;;;;;;19.50;41.80;;;;;;5058650;28;19924;-64
2023/03/10 04:25:57;;;;;;;;;;;19.50;41.80;;;;;;5059744;28;19920;-63
2023/03/10 04:28:25;;;;;;;;;;;19.50;41.80;;;;;;5058812;28;19951;-63
2023/03/10 04:30:52;;;;;;;;;;;19.50;41.80;;;;;;5063041;28;19993;-63
2023/03/10 04:33:18;;;;;;;;;;;19.50;41.80;;;;;;5074449;28;19970;-63
2023/03/10 04:35:47;;;;;;;;;;;19.50;41.80;;;;;;5073934;28;19938;-62
2023/03/10 04:38:14;;;;;;;;;;;19.50;41.80;;;;;;5059248;28;19921;-63
2023/03/10 04:40:41;;;;;;;;;;;19.50;41.80;;;;;;5058963;28;19930;-63
2023/03/10 04:43:08;;;;;;;;;;;19.50;41.80;;;;;;5056993;28;20354;-63
2023/03/10 04:45:36;;;;;;;;;;;19.50;41.90;;;;;;5055626;28;19920;-63
2023/03/10 04:48:02;;;;;;;;;;;19.50;41.90;;;;;;5055659;28;19959;-63
2023/03/10 04:50:29;;;;;;;;;;;19.50;41.80;;;;;;5055957;28;19931;-63
2023/03/10 04:52:56;;;;;;;;;;;19.50;41.80;;;;;;5055627;28;19950;-63
2023/03/10 04:55:23;;;;;;;;;;;19.50;41.90;;;;;;5059299;28;19925;-64
2023/03/10 04:57:50;;;;;;;;;;;19.50;41.90;;;;;;5073709;28;19921;-63
2023/03/10 05:00:16;;;;;;;;;;;19.50;41.90;;;;;;5058588;28;19925;-63
2023/03/10 05:02:45;;;;;;;;;;;19.50;41.90;;;;;;5058031;28;19925;-63
2023/03/10 05:05:11;;;;;;;;;;;19.50;41.90;;;;;;5055818;28;19931;-64
2023/03/10 05:07:39;;;;;;;;;;;19.50;41.80;;;;;;5058370;28;19924;-64
2023/03/10 05:10:06;;;;;;;;;;;19.50;41.90;;;;;;5056372;28;19921;-64
2023/03/10 05:12:32;;;;;;;;;;;19.50;41.90;;;;;;5057987;28;19921;-63
2023/03/10 05:14:59;;;;;;;;;;;19.50;41.90;;;;;;5055916;28;19920;-64
2023/03/10 05:17:27;;;;;;;;;;;19.50;41.90;;;;;;5058131;28;19950;-64
2023/03/10 05:19:55;;;;;;;;;;;19.50;41.90;;;;;;5071789;28;19946;-63
2023/03/10 05:22:22;;;;;;;;;;;19.50;41.90;;;;;;5073683;28;19978;-64
2023/03/10 05:24:49;;;;;;;;;;;19.50;41.90;;;;;;5053745;28;19975;-63
2023/03/10 05:27:17;;;;;;;;;;;19.50;41.90;;;;;;5072968;28;19931;-63
2023/03/10 05:29:44;;;;;;;;;;;19.50;41.90;;;;;;5054871;28;19974;-62
2023/03/10 05:32:10;;;;;;;;;;;19.50;41.90;;;;;;5067317;28;19924;-63
2023/03/10 05:34:37;;;;;;;;;;;19.50;41.90;;;;;;5054538;28;19942;-63
2023/03/10 05:37:05;;;;;;;;;;;19.50;41.90;;;;;;5056407;28;19951;-63
2023/03/10 05:39:32;;;;;;;;;;;19.50;41.90;;;;;;5054063;28;19924;-63
2023/03/10 05:41:59;;;;;;;;;;;19.50;41.90;;;;;;5053692;28;20317;-63
2023/03/10 05:44:25;;;;;;;;;;;19.50;41.90;;;;;;5055039;28;19920;-63
2023/03/10 05:46:52;;;;;;;;;;;19.50;41.90;;;;;;5072211;28;19921;-64
2023/03/10 05:49:19;;;;;;;;;;;19.50;41.90;;;;;;5056081;28;19920;-64
2023/03/10 05:51:46;;;;;;;;;;;19.50;42.00;;;;;;5053734;28;19920;-63
2023/03/10 05:54:15;;;;;;;;;;;19.50;41.90;;;;;;5054127;28;19920;-63
2023/03/10 05:56:42;;;;;;;;;;;19.50;41.90;;;;;;5055640;28;19955;-64
2023/03/10 05:59:09;;;;;;;;;;;19.50;41.90;;;;;;5054671;28;20025;-64
2023/03/10 06:01:36;;;;;;;;;;;19.50;41.90;;;;;;5055089;28;20362;-64
2023/03/10 06:04:02;;;;;;;;;;;19.50;41.90;;;;;;5056989;28;20289;-64
2023/03/10 06:06:29;;;;;;;;;;;19.50;41.90;;;;;;5054873;28;19920;-64
2023/03/10 06:08:56;;;;;;;;;;;19.50;41.90;;;;;;5073256;28;19920;-64
2023/03/10 06:11:24;;;;;;;;;;;19.50;41.90;;;;;;5057698;28;19920;-65
2023/03/10 06:13:51;;;;;;;;;;;19.50;41.90;;;;;;5056753;28;19921;-64
2023/03/10 06:16:18;;;;;;;;;;;19.50;41.90;;;;;;5056225;28;19974;-64
2023/03/10 06:18:44;;;;;;;;;;;19.50;41.90;;;;;;5074636;28;19928;-64
2023/03/10 06:21:12;;;;;;;;;;;19.50;41.90;;;;;;5057290;28;19924;-64
2023/03/10 06:23:39;;;;;;;;;;;19.50;41.90;;;;;;5056393;28;19920;-64
2023/03/10 06:26:06;;;;;;;;;;;19.50;41.90;;;;;;5059894;28;19975;-65
2023/03/10 06:28:35;;;;;;;;;;;19.50;41.90;;;;;;5074670;28;19927;-65
2023/03/10 06:31:02;;;;;;;;;;;19.50;41.90;;;;;;5074222;28;19954;-64
2023/03/10 06:33:29;;;;;;;;;;;19.50;41.90;;;;;;5054952;28;19966;-64
2023/03/10 06:35:56;;;;;;;;;;;19.50;41.90;;;;;;5056433;28;19959;-64
2023/03/10 06:38:23;;;;;;;;;;;19.50;41.90;;;;;;5054405;28;19963;-64
2023/03/10 06:40:49;;;;;;;;;;;19.50;41.90;;;;;;5054362;28;19924;-62
2023/03/10 06:43:17;;;;;;;;;;;19.50;41.90;;;;;;5056191;28;19928;-64
2023/03/10 06:45:45;;;;;;;;;;;19.50;41.90;;;;;;5074607;28;19990;-64
2023/03/10 06:48:12;;;;;;;;;;;19.50;42.00;;;;;;5056654;28;19950;-64
2023/03/10 06:50:40;;;;;;;;;;;19.50;41.90;;;;;;5056223;28;20309;-64
2023/03/10 06:53:07;;;;;;;;;;;19.50;41.90;;;;;;5054288;28;19924;-63
2023/03/10 06:55:34;;;;;;;;;;;19.50;41.90;;;;;;5074088;28;19927;-63
2023/03/10 06:58:00;;;;;;;;;;;19.50;41.90;;;;;;5056478;28;19924;-65
2023/03/10 07:00:28;;;;;;;;;;;19.50;41.90;;;;;;5056614;28;19925;-64
2023/03/10 07:02:56;;;;;;;;;;;19.50;41.90;;;;;;5056169;28;19966;-63
2023/03/10 07:05:23;;;;;;;;;;;19.50;41.90;;;;;;5056102;28;19966;-64
2023/03/10 07:07:50;;;;;;;;;;;19.50;41.90;;;;;;5055897;28;19928;-63
2023/03/10 07:10:17;;;;;;;;;;;19.50;42.00;;;;;;5055780;28;19924;-63
2023/03/10 07:12:44;;;;;;;;;;;19.50;41.90;;;;;;5053970;28;19920;-63
2023/03/10 07:15:11;;;;;;;;;;;19.50;41.90;;;;;;5056629;28;19970;-63
2023/03/10 07:17:38;;;;;;;;;;;19.50;41.90;;;;;;5055478;28;19925;-63
2023/03/10 07:20:07;;;;;;;;;;;19.50;41.90;;;;;;5055962;28;19947;-64
2023/03/10 07:22:34;;;;;;;;;;;19.50;41.90;;;;;;5071554;28;19920;-63
2023/03/10 07:25:00;;;;;;;;;;;19.50;42.00;;;;;;5073619;28;19920;-64
2023/03/10 07:27:27;;;;;;;;;;;19.50;41.90;;;;;;5073746;28;19966;-63
2023/03/10 07:29:54;;;;;;;;;;;19.50;42.00;;;;;;5077211;28;19943;-63
2023/03/10 07:32:21;;;;;;;;;;;19.50;42.00;;;;;;5060662;28;19924;-63
2023/03/10 07:34:47;;;;;;;;;;;19.50;42.00;;;;;;5059761;28;19982;-64
2023/03/10 07:37:16;;;;;;;;;;;19.50;42.00;;;;;;5059838;28;19969;-63
2023/03/10 07:39:43;;;;;;;;;;;19.50;42.00;;;;;;5077813;28;19982;-64
2023/03/10 07:42:10;;;;;;;;;;;19.50;42.00;;;;;;5060157;28;20359;-63
2023/03/10 07:44:40;;;;;;;;;;;19.50;42.00;;;;;;5059995;28;19977;-63
2023/03/10 07:47:06;;;;;;;;;;;19.50;42.00;;;;;;5057889;28;19921;-63
2023/03/10 07:49:33;;;;;;;;;;;19.50;42.00;;;;;;5077806;28;19935;-64
2023/03/10 07:52:00;;;;;;;;;;;19.50;42.00;;;;;;5075628;28;19921;-63
2023/03/10 07:54:30;;;;;;;;;;;19.50;42.00;;;;;;5077323;28;19920;-63
2023/03/10 07:56:57;;;;;;;;;;;19.50;42.20;;;;;;5057037;28;19970;-57
2023/03/10 07:59:23;;;;;;;;;;;19.50;42.00;;;;;;5056732;28;19920;-57
2023/03/10 08:01:50;;;;;;;;;;;19.50;41.90;;;;;;5052576;28;20332;-57
2023/03/10 08:04:17;;;;;;;;;;;19.50;41.50;;;;;;5059227;28;19948;-58
2023/03/10 08:06:43;;;;;;;;;;;19.50;40.40;;;;;;5059980;28;19966;-58
2023/03/10 08:09:10;;;;;;;;;;;19.40;38.90;;;;;;5059138;28;19920;-57
2023/03/10 08:11:38;;;;;;;;;;;19.40;38.30;;;;;;5059180;28;19966;-69
2023/03/10 08:14:05;;;;;;;;;;;19.30;38.40;;;;;;5056041;28;19924;-67
2023/03/10 08:16:32;;;;;;;;;;;19.30;38.90;;;;;;5065491;28;20404;-69
2023/03/10 08:18:59;;;;;;;;;;;19.30;39.20;;;;;;5075054;28;20377;-66
2023/03/10 08:21:25;;;;;;;;;;;19.20;39.40;;;;;;5068310;28;19925;-69
2023/03/10 08:23:52;;;;;;;;;;;19.20;39.60;;;;;;5072836;28;20337;-67
2023/03/10 08:26:19;;;;;;;;;;;19.20;39.80;;;;;;5072136;28;19966;-65
2023/03/10 08:28:47;;;;;;;;;;;19.20;39.90;;;;;;5055904;28;19926;-64
2023/03/10 08:31:15;;;;;;;;;;;19.20;40.00;;;;;;5071634;28;19925;-65
2023/03/10 08:33:41;;;;;;;;;;;19.30;40.20;;;;;;5059087;28;19960;-65
2023/03/10 08:36:09;;;;;;;;;;;19.20;40.30;;;;;;5078920;28;19974;-65
2023/03/10 08:38:36;;;;;;;;;;;19.20;40.40;;;;;;5062288;28;19971;-67
2023/03/10 08:41:12;;;;;;;;;;;19.30;40.40;;;;;;5056446;28;19942;-64
2023/03/10 08:43:39;;;;;;;;;;;19.30;40.50;;;;;;5064197;28;19924;-65
2023/03/10 08:46:07;;;;;;;;;;;19.30;40.60;;;;;;5062861;28;20015;-67
2023/03/10 08:48:34;;;;;;;;;;;19.30;40.70;;;;;;5064518;28;19960;-66
2023/03/10 08:51:00;;;;;;;;;;;19.30;40.70;;;;;;5054469;28;19920;-66
2023/03/10 08:53:27;;;;;;;;;;;19.40;40.80;;;;;;5072612;28;19921;-68
2023/03/10 08:55:54;;;;;;;;;;;19.40;40.90;;;;;;5055011;28;19924;-66
2023/03/10 08:58:21;;;;;;;;;;;19.40;40.90;;;;;;5062065;28;19974;-66
2023/03/10 09:00:48;;;;;;;;;;;19.40;40.90;;;;;;5058905;28;19921;-66
2023/03/10 09:03:16;;;;;;;;;;;19.40;40.90;;;;;;5072364;28;20017;-66
2023/03/10 09:05:43;;;;;;;;;;;19.40;40.90;;;;;;5060697;28;19921;-66
2023/03/10 09:08:10;;;;;;;;;;;19.40;40.90;;;;;;5056123;28;19920;-66
2023/03/10 09:10:37;;;;;;;;;;;19.40;41.00;;;;;;5058080;28;20355;-65
2023/03/10 09:13:04;;;;;;;;;;;19.40;40.90;;;;;;5058295;28;19966;-66
2023/03/10 09:15:30;;;;;;;;;;;19.40;40.90;;;;;;5057806;28;19928;-65
2023/03/10 09:17:58;;;;;;;;;;;19.40;41.00;;;;;;5059491;28;19952;-66
2023/03/10 09:20:26;;;;;;;;;;;19.40;41.00;;;;;;5054070;28;19921;-64
2023/03/10 09:22:53;;;;;;;;;;;19.50;41.10;;;;;;5061653;28;19927;-66
2023/03/10 09:25:20;;;;;;;;;;;19.50;41.20;;;;;;5073481;28;19920;-66
2023/03/10 09:27:47;;;;;;;;;;;19.50;41.20;;;;;;5057744;28;19927;-68
2023/03/10 09:30:14;;;;;;;;;;;19.50;41.20;;;;;;5057979;28;19989;-69
2023/03/10 09:32:40;;;;;;;;;;;19.50;41.20;;;;;;5069526;28;19921;-66
2023/03/10 09:35:07;;;;;;;;;;;19.50;41.20;;;;;;5056157;28;20023;-68
2023/03/10 09:37:36;;;;;;;;;;;19.50;41.20;;;;;;5071277;28;19928;-67
2023/03/10 09:40:04;;;;;;;;;;;19.50;41.30;;;;;;5055066;28;19927;-66
2023/03/10 09:42:32;;;;;;;;;;;19.50;41.30;;;;;;5055286;28;19920;-67
2023/03/10 09:45:01;;;;;;;;;;;19.50;41.30;;;;;;5058077;28;19920;-64
2023/03/10 09:47:33;;;;;;;;;;;19.50;41.30;;;;;;5057848;28;19966;-67
2023/03/10 09:50:11;;;;;;;;;;;19.60;41.40;;;;;;5067214;28;20015;-69
2023/03/10 09:52:41;;;;;;;;;;;19.60;41.40;;;;;;5074197;28;19950;-69
2023/03/10 09:55:11;;;;;;;;;;;19.60;41.50;;;;;;5073714;28;19920;-67
2023/03/10 09:57:38;;;;;;;;;;;19.60;41.50;;;;;;5073814;28;19971;-67
2023/03/10 10:00:07;;;;;;;;;;;19.60;41.50;;;;;;5072793;28;19920;-67
2023/03/10 10:02:35;;;;;;;;;;;19.60;41.60;;;;;;5056605;28;19925;-65
2023/03/10 10:05:02;;;;;;;;;;;19.60;41.50;;;;;;5074892;28;19920;-66
2023/03/10 10:07:31;;;;;;;;;;;19.60;41.60;;;;;;5074580;28;19920;-65
2023/03/10 10:10:01;;;;;;;;;;;19.60;41.60;;;;;;5057074;28;19920;-66
2023/03/10 10:12:27;;;;;;;;;;;19.60;41.60;;;;;;5056989;28;19920;-66
2023/03/10 10:14:55;;;;;;;;;;;19.60;41.60;;;;;;5074859;28;19985;-65
2023/03/10 10:17:23;;;;;;;;;;;19.60;41.60;;;;;;5074891;28;19965;-67
2023/03/10 10:19:49;;;;;;;;;;;19.60;41.70;;;;;;5056561;28;19921;-67
2023/03/10 10:22:18;;;;;;;;;;;19.60;41.70;;;;;;5066361;28;19966;-67
2023/03/10 10:24:52;;;;;;;;;;;19.70;41.80;;;;;;5056471;28;19920;-67
2023/03/10 10:27:22;;;;;;;;;;;19.70;41.80;;;;;;5066218;28;19958;-67
2023/03/10 10:29:49;;;;;;;;;;;19.60;41.70;;;;;;5071096;28;19927;-63
2023/03/10 10:32:16;;;;;;;;;;;19.70;41.80;;;;;;5057478;28;19921;-64
2023/03/10 10:34:43;;;;;;;;;;;19.70;41.80;;;;;;5072363;28;19921;-66
2023/03/10 10:37:20;;;;;;;;;;;19.70;41.80;;;;;;5073984;28;19974;-64
2023/03/10 10:39:47;;;;;;;;;;;19.70;41.80;;;;;;5061195;28;19955;-65
2023/03/10 10:42:14;;;;;;;;;;;19.70;41.80;;;;;;5056320;28;19981;-63
2023/03/10 10:44:42;;;;;;;;;;;19.70;41.90;;;;;;5056397;28;20266;-64
2023/03/10 10:47:18;;;;;;;;;;;19.70;41.90;;;;;;5074132;28;19920;-63
2023/03/10 10:49:45;;;;;;;;;;;19.70;41.90;;;;;;5071856;28;19924;-63
2023/03/10 10:52:18;;;;;;;;;;;19.70;41.90;;;;;;5053012;28;19920;-64
2023/03/10 10:54:49;;;;;;;;;;;19.70;41.90;;;;;;5074169;28;19925;-63
2023/03/10 10:57:16;;;;;;;;;;;19.70;41.90;;;;;;5067948;28;19921;-62
2023/03/10 10:59:44;;;;;;;;;;;19.70;42.00;;;;;;5072778;28;20302;-64
2023/03/10 11:02:21;;;;;;;;;;;19.70;42.00;;;;;;5073883;28;19964;-64
2023/03/10 11:04:48;;;;;;;;;;;19.70;42.00;;;;;;5066543;28;20007;-64
2023/03/10 11:07:17;;;;;;;;;;;19.70;42.00;;;;;;5056870;28;19943;-63
2023/03/10 11:09:45;;;;;;;;;;;19.70;42.00;;;;;;5051731;28;20272;-64
2023/03/10 11:12:13;;;;;;;;;;;19.70;42.00;;;;;;5056287;28;19924;-68
2023/03/10 11:14:43;;;;;;;;;;;19.70;42.00;;;;;;5054318;28;19964;-66
2023/03/10 11:17:13;;;;;;;;;;;19.70;42.00;;;;;;5053290;28;19974;-66
2023/03/10 11:19:45;;;;;;;;;;;19.70;42.10;;;;;;5052979;28;19920;-65
2023/03/10 11:22:14;;;;;;;;;;;19.70;42.00;;;;;;5053288;28;19920;-65
2023/03/10 11:24:42;;;;;;;;;;;19.70;42.00;;;;;;5070549;28;19943;-65
2023/03/10 11:27:09;;;;;;;;;;;19.80;42.20;;;;;;5052993;28;19965;-66
2023/03/10 11:29:41;;;;;;;;;;;19.80;42.20;;;;;;5051615;28;19981;-63
2023/03/10 11:32:09;;;;;;;;;;;19.80;42.20;;;;;;5054647;28;20310;-65
2023/03/10 11:34:38;;;;;;;;;;;19.80;42.20;;;;;;5052553;28;19924;-65
2023/03/10 11:37:07;;;;;;;;;;;19.80;42.20;;;;;;5054330;28;19990;-66
2023/03/10 11:39:40;;;;;;;;;;;19.80;42.20;;;;;;5069283;28;19921;-65
2023/03/10 11:42:08;;;;;;;;;;;19.80;42.20;;;;;;5071045;28;20014;-65
2023/03/10 11:44:36;;;;;;;;;;;19.80;42.20;;;;;;5070633;28;19924;-64
2023/03/10 11:47:03;;;;;;;;;;;19.80;42.20;;;;;;5051930;28;19970;-66
2023/03/10 11:49:31;;;;;;;;;;;19.80;42.20;;;;;;5054814;28;19921;-66
2023/03/10 11:52:00;;;;;;;;;;;19.80;42.20;;;;;;5068313;28;19920;-66
2023/03/10 11:54:27;;;;;;;;;;;19.80;42.20;;;;;;5070633;28;19921;-65
2023/03/10 11:56:54;;;;;;;;;;;19.80;42.20;;;;;;5072169;28;19966;-65
2023/03/10 11:59:21;;;;;;;;;;;19.80;42.20;;;;;;5054549;28;19966;-65
2023/03/10 12:01:49;;;;;;;;;;;19.80;42.20;;;;;;5056461;28;19920;-65
2023/03/10 12:04:16;;;;;;;;;;;19.80;42.20;;;;;;5056290;28;19921;-66
2023/03/10 12:06:44;;;;;;;;;;;19.80;42.20;;;;;;5073858;28;19921;-65
2023/03/10 12:09:13;;;;;;;;;;;19.80;42.20;;;;;;5055538;28;19924;-66
2023/03/10 12:11:40;;;;;;;;;;;19.80;42.20;;;;;;5073432;28;19943;-66
2023/03/10 12:14:07;;;;;;;;;;;19.80;42.20;;;;;;5055374;28;19931;-66
2023/03/10 12:16:35;;;;;;;;;;;19.80;42.20;;;;;;5076913;28;19920;-65
2023/03/10 12:19:01;;;;;;;;;;;19.80;42.30;;;;;;5059094;28;19920;-67
2023/03/10 12:21:28;;;;;;;;;;;19.80;42.30;;;;;;5057447;28;19921;-65
2023/03/10 12:23:55;;;;;;;;;;;19.80;42.30;;;;;;5058995;28;20053;-67
2023/03/10 12:26:43;;;;;;;;;;;19.80;42.30;;;;;;5059061;28;19921;-66
2023/03/10 12:29:29;;;;;;;;;;;19.80;42.30;;;;;;5058861;28;19920;-67
2023/03/10 12:31:56;;;;;;;;;;;19.80;42.30;;;;;;5059538;28;19924;-66
2023/03/10 12:34:23;;;;;;;;;;;19.80;42.30;;;;;;5076485;28;19921;-68
2023/03/10 12:36:49;;;;;;;;;;;19.80;42.30;;;;;;5076816;28;19921;-69
2023/03/10 12:39:30;;;;;;;;;;;19.80;42.30;;;;;;5059021;28;19970;-68
2023/03/10 12:41:57;;;;;;;;;;;19.80;42.30;;;;;;5059383;28;20022;-67
2023/03/10 12:44:57;;;;;;;;;;;19.80;42.30;;;;;;5056933;28;19920;-68
2023/03/10 12:47:27;;;;;;;;;;;19.80;42.30;;;;;;4997472;28;20320;-67
2023/03/10 12:49:55;;;;;;;;;;;19.80;42.30;;;;;;4998072;28;20356;-67
2023/03/10 12:52:27;;;;;;;;;;;19.80;42.30;;;;;;5042889;28;20439;-67
2023/03/10 12:54:55;;;;;;;;;;;19.80;42.30;;;;;;5075213;28;19920;-67
2023/03/10 12:57:23;;;;;;;;;;;19.80;42.30;;;;;;5074793;28;19927;-67
2023/03/10 12:59:52;;;;;;;;;;;19.80;42.30;;;;;;5068516;28;20006;-67
2023/03/10 13:02:24;;;;;;;;;;;19.80;42.30;;;;;;5076223;28;19966;-67
2023/03/10 13:04:52;;;;;;;;;;;19.80;42.30;;;;;;5058326;28;19974;-67
2023/03/10 13:07:21;;;;;;;;;;;19.80;42.30;;;;;;5056553;28;19920;-67
2023/03/10 13:09:47;;;;;;;;;;;19.80;42.40;;;;;;5057836;28;19927;-67
2023/03/10 13:12:15;;;;;;;;;;;19.80;42.40;;;;;;5058203;28;19920;-67
2023/03/10 13:14:42;;;;;;;;;;;19.80;42.40;;;;;;5056095;28;19927;-66
2023/03/10 13:17:20;;;;;;;;;;;19.80;42.30;;;;;;5058431;28;19920;-67
2023/03/10 13:19:47;;;;;;;;;;;19.80;42.40;;;;;;5073824;28;19982;-53
2023/03/10 13:22:17;;;;;;;;;;;19.80;42.40;;;;;;5068695;28;19929;-55
2023/03/10 13:24:44;;;;;;;;;;;19.80;42.00;;;;;;5075449;28;19921;-55
2023/03/10 13:27:12;;;;;;;;;;;19.80;40.70;;;;;;5055512;28;20208;-55
2023/03/10 13:29:38;;;;;;;;;;;19.70;40.00;;;;;;5075660;28;19920;-52
2023/03/10 13:32:06;;;;;;;;;;;19.70;39.80;;;;;;5057748;28;19963;-55
2023/03/10 13:34:35;;;;;;;;;;;19.70;39.80;;;;;;5073914;28;19920;-56
2023/03/10 13:37:02;;;;;;;;;;;19.60;39.70;;;;;;5074099;28;19921;-57
2023/03/10 13:39:30;;;;;;;;;;;19.60;39.70;;;;;;5073988;28;20003;-57
2023/03/10 13:41:58;;;;;;;;;;;19.50;39.50;;;;;;5074000;28;19981;-56
2023/03/10 13:44:25;;;;;;;;;;;19.60;39.50;;;;;;5070900;28;20424;-51
2023/03/10 13:46:52;;;;;;;;;;;19.50;39.30;;;;;;5074385;28;19920;-54
2023/03/10 13:49:20;;;;;;;;;;;19.50;39.20;;;;;;5073831;28;19920;-54
2023/03/10 13:51:54;;;;;;;;;;;19.50;39.20;;;;;;5074268;28;20373;-54
2023/03/10 13:54:22;;;;;;;;;;;19.50;39.10;;;;;;5072580;28;20358;-56
2023/03/10 13:56:51;;;;;;;;;;;19.50;39.00;;;;;;5057321;28;19920;-55
2023/03/10 13:59:19;;;;;;;;;;;19.50;39.10;;;;;;5054886;28;20332;-53
2023/03/10 14:01:47;;;;;;;;;;;19.40;38.90;;;;;;5056906;28;19925;-55
2023/03/10 14:04:14;;;;;;;;;;;19.50;39.00;;;;;;5068260;28;19920;-55
2023/03/10 14:06:41;;;;;;;;;;;19.40;38.90;;;;;;5072653;28;19966;-56
2023/03/10 14:09:15;;;;;;;;;;;19.40;38.90;;;;;;5054967;28;19959;-56
2023/03/10 14:11:41;;;;;;;;;;;19.50;38.90;;;;;;5056798;28;19920;-57
2023/03/10 14:14:11;;;;;;;;;;;19.40;38.90;;;;;;5055143;28;19956;-55
2023/03/10 14:16:44;;;;;;;;;;;19.40;38.80;;;;;;5056604;28;20416;-57
2023/03/10 14:19:11;;;;;;;;;;;19.40;38.60;;;;;;5056635;28;19921;-56